Time;durP1;ratioP1;P1;durP2;ratioP2;P2;SDS_P1;SDS_P2;PMS_P1;PMS_P2;Temp;Humidity;BMP_temperature;BMP_pressure;BME280_temperature;BME280_humidity;BME280_pressure;Samples;Min_cycle;Max_cycle;Signal;HPM_P1;HPM_P2
2022/08/02 00:00:27;;;;;;;12.88;7.80;;;10.60;99.90;;;;;;5052569;28;20049;-26
2022/08/02 00:02:52;;;;;;;15.02;8.00;;;10.60;99.90;;;;;;5052501;28;20110;-26
2022/08/02 00:05:18;;;;;;;19.77;7.80;;;10.60;99.90;;;;;;5053389;28;20088;-26
2022/08/02 00:07:44;;;;;;;14.00;7.45;;;10.50;99.90;;;;;;5052865;28;20047;-27
2022/08/02 00:10:11;;;;;;;12.18;6.75;;;10.50;99.90;;;;;;5055299;28;20041;-26
2022/08/02 00:12:38;;;;;;;16.35;7.20;;;10.60;99.90;;;;;;5052226;28;20142;-26
2022/08/02 00:15:06;;;;;;;18.65;7.93;;;10.50;99.90;;;;;;5052552;28;20045;-26
2022/08/02 00:17:31;;;;;;;17.20;7.78;;;10.50;99.90;;;;;;5051649;28;20045;-26
2022/08/02 00:19:57;;;;;;;22.38;9.13;;;10.40;99.90;;;;;;5051278;28;20040;-26
2022/08/02 00:22:23;;;;;;;10.88;7.07;;;10.30;99.90;;;;;;5073973;28;20041;-26
2022/08/02 00:24:48;;;;;;;14.77;7.78;;;10.40;99.90;;;;;;5055822;28;20051;-26
2022/08/02 00:27:14;;;;;;;16.65;7.53;;;10.40;99.90;;;;;;5056580;28;20111;-26
2022/08/02 00:29:40;;;;;;;13.52;6.95;;;10.40;99.90;;;;;;5056904;28;20049;-26
2022/08/02 00:32:05;;;;;;;18.55;8.23;;;10.40;99.90;;;;;;5056681;28;20430;-26
2022/08/02 00:34:31;;;;;;;14.70;7.30;;;10.30;99.90;;;;;;5056647;28;20131;-27
2022/08/02 00:36:57;;;;;;;16.17;7.35;;;10.30;99.90;;;;;;5056584;28;20045;-26
2022/08/02 00:39:23;;;;;;;15.02;7.53;;;10.20;99.90;;;;;;5054798;28;20052;-26
2022/08/02 00:41:51;;;;;;;18.17;8.00;;;10.30;99.90;;;;;;5056469;28;20049;-26
2022/08/02 00:44:18;;;;;;;11.55;7.47;;;10.30;99.90;;;;;;5056408;28;20037;-26
2022/08/02 00:46:45;;;;;;;13.88;7.72;;;10.40;99.90;;;;;;5056309;28;20087;-26
2022/08/02 00:49:11;;;;;;;19.33;7.97;;;10.40;99.90;;;;;;5055165;28;20375;-26
2022/08/02 00:51:39;;;;;;;18.95;8.73;;;10.40;99.90;;;;;;5056266;28;20061;-26
2022/08/02 00:54:06;;;;;;;19.80;9.23;;;10.40;99.90;;;;;;5056780;28;20041;-26
2022/08/02 00:56:32;;;;;;;16.67;8.32;;;10.40;99.90;;;;;;5054569;28;20049;-27
2022/08/02 00:58:57;;;;;;;13.73;7.72;;;10.40;99.90;;;;;;5056165;28;20384;-25
2022/08/02 01:01:39;;;;;;;15.88;7.90;;;10.60;99.90;;;;;;5056072;28;20114;-26
2022/08/02 01:04:09;;;;;;;20.10;8.55;;;10.50;99.90;;;;;;5056508;28;20091;-26
2022/08/02 01:06:37;;;;;;;16.95;8.23;;;10.40;99.90;;;;;;5056175;28;20045;-26
2022/08/02 01:09:04;;;;;;;19.15;8.57;;;10.50;99.90;;;;;;5056780;28;20125;-26
2022/08/02 01:11:31;;;;;;;16.77;8.90;;;10.40;99.90;;;;;;5054762;28;20061;-26
2022/08/02 01:14:03;;;;;;;20.85;8.88;;;10.50;99.90;;;;;;5055574;28;20503;-26
2022/08/02 01:16:35;;;;;;;21.65;8.75;;;10.40;99.90;;;;;;5055084;28;20088;-26
2022/08/02 01:19:13;;;;;;;19.13;7.82;;;10.30;99.90;;;;;;5056350;28;20052;-26
2022/08/02 01:22:14;;;;;;;17.50;8.10;;;10.30;99.90;;;;;;5056603;28;20075;-26
2022/08/02 01:25:05;;;;;;;18.98;8.45;;;10.20;99.90;;;;;;5054289;28;20053;-26
2022/08/02 01:27:46;;;;;;;19.95;8.25;;;10.20;99.90;;;;;;5056227;28;20048;-26
2022/08/02 01:30:13;;;;;;;14.10;7.45;;;10.20;99.90;;;;;;5054805;28;20049;-26
2022/08/02 01:32:47;;;;;;;18.10;7.53;;;10.10;99.90;;;;;;5056137;28;20052;-26
2022/08/02 01:35:20;;;;;;;11.60;7.35;;;10.10;99.90;;;;;;5054895;28;20471;-26
2022/08/02 01:37:55;;;;;;;;;;;10.00;99.90;;;;;;5056193;28;20092;-26
2022/08/02 01:40:33;;;;;;;14.32;6.63;;;10.00;99.90;;;;;;5055369;28;19934;-25
2022/08/02 01:43:00;;;;;;;16.63;7.03;;;10.00;99.90;;;;;;5054368;28;20501;-26
2022/08/02 01:45:31;;;;;;;16.63;7.15;;;10.00;99.90;;;;;;5054419;28;20049;-26
2022/08/02 01:47:59;;;;;;;19.42;7.32;;;9.90;99.90;;;;;;5055251;28;20044;-26
2022/08/02 01:50:28;;;;;;;11.05;5.97;;;9.90;99.90;;;;;;5055733;28;20052;-26
2022/08/02 01:52:57;;;;;;;13.13;6.10;;;9.90;99.90;;;;;;5055104;28;20084;-27
2022/08/02 01:55:33;;;;;;;13.10;6.70;;;9.90;99.90;;;;;;5055631;28;20095;-26
2022/08/02 01:58:02;;;;;;;14.57;6.75;;;9.90;99.90;;;;;;5037157;28;20470;-26
2022/08/02 02:00:32;;;;;;;18.48;6.68;;;9.90;99.90;;;;;;5054939;28;20099;-26
2022/08/02 02:02:59;;;;;;;10.48;7.00;;;9.90;99.90;;;;;;5054449;28;20045;-26
2022/08/02 02:05:28;;;;;;;17.23;6.45;;;9.90;99.90;;;;;;5054795;28;20056;-26
2022/08/02 02:07:59;;;;;;;13.05;6.15;;;9.80;99.90;;;;;;5054841;28;20175;-26
2022/08/02 02:10:30;;;;;;;12.95;6.18;;;9.90;99.90;;;;;;5053444;28;20052;-26
2022/08/02 02:13:15;;;;;;;19.52;6.93;;;9.90;99.90;;;;;;5054837;28;20497;-26
2022/08/02 02:15:45;;;;;;;14.60;6.93;;;10.00;99.90;;;;;;5054627;28;20084;-26
2022/08/02 02:18:17;;;;;;;10.05;5.72;;;9.90;99.90;;;;;;5054687;28;20186;-26
2022/08/02 02:20:43;;;;;;;20.20;6.70;;;10.10;99.90;;;;;;5054011;28;20051;-26
2022/08/02 02:23:10;;;;;;;16.15;5.35;;;10.10;99.90;;;;;;5054596;28;20048;-27
2022/08/02 02:25:39;;;;;;;12.10;5.95;;;10.10;99.90;;;;;;5054437;28;20154;-26
2022/08/02 02:28:12;;;;;;;13.95;5.32;;;10.10;99.90;;;;;;5054356;28;20056;-26
2022/08/02 02:30:43;;;;;;;13.15;6.55;;;10.20;99.90;;;;;;5054806;28;20049;-26
2022/08/02 02:33:10;;;;;;;15.82;6.35;;;10.10;99.90;;;;;;5054472;28;20080;-26
2022/08/02 02:35:38;;;;;;;10.30;5.32;;;10.20;99.90;;;;;;5054310;28;20143;-25
2022/08/02 02:38:08;;;;;;;14.95;5.43;;;10.20;99.90;;;;;;5052392;28;20045;-26
2022/08/02 02:40:35;;;;;;;11.48;5.18;;;10.20;99.90;;;;;;5054477;28;20430;-26
2022/08/02 02:43:02;;;;;;;14.40;6.00;;;10.30;99.90;;;;;;5054811;28;20049;-26
2022/08/02 02:45:30;;;;;;;16.50;5.72;;;10.30;99.90;;;;;;5053723;28;20440;-26
2022/08/02 02:47:58;;;;;;;20.35;6.18;;;10.30;99.90;;;;;;5054135;28;20053;-26
2022/08/02 02:50:24;;;;;;;22.75;7.07;;;10.40;99.90;;;;;;5054628;28;20402;-26
2022/08/02 02:52:52;;;;;;;13.23;5.63;;;10.40;99.90;;;;;;5053970;28;20048;-26
2022/08/02 02:55:18;;;;;;;14.35;5.63;;;10.40;99.90;;;;;;5053237;28;20072;-26
2022/08/02 02:57:45;;;;;;;14.02;6.05;;;10.40;99.90;;;;;;5054242;28;20391;-25
2022/08/02 03:00:13;;;;;;;15.32;6.10;;;10.40;99.90;;;;;;5052981;28;20106;-26
2022/08/02 03:02:41;;;;;;;10.27;5.97;;;10.50;99.90;;;;;;5053877;28;20052;-26
2022/08/02 03:05:08;;;;;;;13.38;5.80;;;10.40;99.90;;;;;;5053829;28;20052;-26
2022/08/02 03:07:35;;;;;;;17.63;6.30;;;10.50;99.90;;;;;;5053859;28;20053;-26
2022/08/02 03:10:03;;;;;;;11.45;5.47;;;10.50;99.90;;;;;;5053855;28;20128;-26
2022/08/02 03:12:29;;;;;;;17.23;5.88;;;10.50;99.90;;;;;;5052481;28;20499;-26
2022/08/02 03:15:00;;;;;;;10.90;5.60;;;10.60;99.90;;;;;;5053585;28;20084;-26
2022/08/02 03:17:37;;;;;;;12.57;5.72;;;10.70;99.90;;;;;;5054319;28;20056;-26
2022/08/02 03:20:10;;;;;;;15.10;7.05;;;10.70;99.90;;;;;;5053580;28;20386;-26
2022/08/02 03:22:36;;;;;;;15.75;6.22;;;10.70;99.90;;;;;;5053665;28;20060;-26
2022/08/02 03:25:02;;;;;;;15.48;6.30;;;10.70;99.90;;;;;;5052687;28;20041;-26
2022/08/02 03:27:27;;;;;;;16.00;6.13;;;10.80;99.90;;;;;;5053263;28;20099;-26
2022/08/02 03:29:53;;;;;;;12.98;5.93;;;10.80;93.60;;;;;;5053494;28;20442;-26
2022/08/02 03:32:19;;;;;;;15.80;6.38;;;10.80;70.20;;;;;;5053536;28;20059;-26
2022/08/02 03:34:45;;;;;;;11.70;6.20;;;10.80;37.90;;;;;;5052518;28;20045;-26
2022/08/02 03:37:11;;;;;;;10.30;5.57;;;10.80;27.10;;;;;;5053766;28;20045;-26
2022/08/02 03:39:36;;;;;;;11.27;6.30;;;10.80;5.50;;;;;;5053480;28;20052;-26
2022/08/02 03:42:03;;;;;;;11.38;6.03;;;10.80;1.00;;;;;;5053970;28;20384;-26
2022/08/02 03:44:30;;;;;;;11.60;6.55;;;10.90;1.00;;;;;;5052652;28;20052;-27
2022/08/02 03:46:56;;;;;;;14.30;6.72;;;10.90;1.00;;;;;;5053288;28;20403;-27
2022/08/02 03:49:22;;;;;;;16.80;6.93;;;10.80;1.00;;;;;;5053905;28;20052;-26
2022/08/02 03:51:48;;;;;;;18.33;7.07;;;10.90;1.00;;;;;;5053308;28;20053;-26
2022/08/02 03:54:16;;;;;;;14.93;6.50;;;10.80;1.00;;;;;;5053165;28;20048;-26
2022/08/02 03:56:42;;;;;;;16.13;6.47;;;10.90;1.00;;;;;;5054529;28;20048;-27
2022/08/02 03:59:10;;;;;;;13.43;6.18;;;10.80;1.00;;;;;;5058105;28;20405;-26
2022/08/02 04:01:35;;;;;;;12.30;6.38;;;10.80;1.00;;;;;;5056763;28;20586;-26
2022/08/02 04:04:01;;;;;;;15.48;6.80;;;10.80;1.00;;;;;;5057799;28;20127;-27
2022/08/02 04:06:27;;;;;;;10.85;7.20;;;10.80;99.90;;;;;;5057086;28;20037;-27
2022/08/02 04:08:52;;;;;;;16.67;6.63;;;10.90;99.90;;;;;;5057152;28;20048;-27
2022/08/02 04:11:30;;;;;;;10.07;6.32;;;10.90;1.00;;;;;;5057067;28;20509;-26
2022/08/02 04:14:06;;;;;;;17.25;7.47;;;10.90;99.90;;;;;;5057075;28;20410;-26
2022/08/02 04:16:44;;;;;;;8.77;6.30;;;10.90;99.90;;;;;;5056952;28;20041;-26
2022/08/02 04:19:15;;;;;;;11.98;5.90;;;11.00;99.90;;;;;;5056162;28;20519;-26
2022/08/02 04:21:44;;;;;;;15.38;5.68;;;11.00;99.90;;;;;;5057204;28;20402;-26
2022/08/02 04:24:11;;;;;;;10.73;6.00;;;11.00;99.90;;;;;;5056500;28;20502;-26
2022/08/02 04:26:39;;;;;;;10.52;5.43;;;11.00;99.90;;;;;;5057219;28;20127;-26
2022/08/02 04:29:06;;;;;;;12.85;6.50;;;11.00;99.90;;;;;;5056658;28;20045;-26
2022/08/02 04:31:32;;;;;;;13.93;6.85;;;11.00;99.90;;;;;;5057480;28;20072;-26
2022/08/02 04:33:58;;;;;;;13.63;6.32;;;11.10;99.90;;;;;;5056932;28;20087;-26
2022/08/02 04:36:24;;;;;;;15.70;6.57;;;11.10;99.90;;;;;;5055038;28;20059;-26
2022/08/02 04:38:50;;;;;;;18.27;6.30;;;11.20;99.90;;;;;;5056542;28;20051;-27
2022/08/02 04:41:15;;;;;;;14.20;7.30;;;11.20;99.90;;;;;;5056517;28;20045;-27
2022/08/02 04:43:41;;;;;;;17.67;6.15;;;11.30;99.90;;;;;;5056457;28;20107;-26
2022/08/02 04:46:07;;;;;;;15.80;6.43;;;11.40;99.90;;;;;;5056365;28;20052;-26
2022/08/02 04:48:33;;;;;;;8.75;5.50;;;11.40;99.90;;;;;;5056642;28;20094;-27
2022/08/02 04:50:59;;;;;;;13.55;5.75;;;11.50;99.90;;;;;;5056354;28;20045;-27
2022/08/02 04:53:25;;;;;;;16.50;6.15;;;11.50;99.90;;;;;;5055561;28;20049;-27
2022/08/02 04:55:50;;;;;;;12.63;5.93;;;11.60;99.90;;;;;;5056182;28;20037;-27
2022/08/02 04:58:16;;;;;;;11.70;6.20;;;11.70;96.10;;;;;;5055246;28;20048;-27
2022/08/02 05:00:43;;;;;;;10.43;5.45;;;11.80;75.90;;;;;;5056144;28;20041;-27
2022/08/02 05:03:09;;;;;;;17.25;5.53;;;11.90;85.80;;;;;;5054777;28;20041;-27
2022/08/02 05:05:35;;;;;;;12.15;5.82;;;12.00;52.80;;;;;;5056827;28;20365;-27
2022/08/02 05:08:01;;;;;;;16.70;5.82;;;12.10;44.40;;;;;;5055377;28;20392;-26
2022/08/02 05:10:27;;;;;;;13.43;6.00;;;12.20;26.60;;;;;;5054197;28;20499;-28
2022/08/02 05:12:52;;;;;;;18.65;6.28;;;12.30;25.80;;;;;;5055131;28;20106;-27
2022/08/02 05:15:19;;;;;;;14.88;5.50;;;12.50;1.00;;;;;;5054691;28;20087;-28
2022/08/02 05:17:47;;;;;;;14.27;4.90;;;12.60;9.00;;;;;;5055835;28;20044;-27
2022/08/02 05:20:13;;;;;;;14.05;6.15;;;12.80;7.90;;;;;;5037373;28;20107;-27
2022/08/02 05:22:40;;;;;;;18.17;5.85;;;13.00;56.90;;;;;;5053558;28;20045;-27
2022/08/02 05:25:07;;;;;;;14.10;4.60;;;13.10;23.40;;;;;;5055311;28;20059;-27
2022/08/02 05:27:33;;;;;;;13.98;5.10;;;13.30;4.10;;;;;;5055161;28;20076;-27
2022/08/02 05:29:59;;;;;;;13.88;4.53;;;13.50;1.00;;;;;;5053821;28;20482;-27
2022/08/02 05:32:25;;;;;;;20.00;4.43;;;13.60;1.00;;;;;;5053029;28;20041;-27
2022/08/02 05:34:51;;;;;;;10.90;4.43;;;13.60;99.90;;;;;;5055488;28;20045;-27
2022/08/02 05:37:17;;;;;;;15.77;4.22;;;13.60;99.90;;;;;;5055421;28;20156;-27
2022/08/02 05:39:43;;;;;;;12.02;4.65;;;13.60;15.70;;;;;;5054707;28;20551;-27
2022/08/02 05:42:09;;;;;;;14.00;4.90;;;13.70;99.90;;;;;;5054764;28;20057;-27
2022/08/02 05:44:35;;;;;;;10.75;4.18;;;13.70;89.50;;;;;;5054392;28;20380;-27
2022/08/02 05:47:00;;;;;;;11.57;4.53;;;14.00;99.90;;;;;;5055205;28;20037;-27
2022/08/02 05:49:26;;;;;;;10.27;4.00;;;14.80;99.90;;;;;;5052324;28;20045;-27
2022/08/02 05:52:13;;;;;;;10.43;3.80;;;15.50;29.50;;;;;;5054475;28;20045;-27
2022/08/02 05:54:38;;;;;;;9.63;3.70;;;16.20;99.90;;;;;;5053192;28;20052;-27
2022/08/02 05:57:16;;;;;;;12.73;3.75;;;16.80;99.90;;;;;;5054473;28;20406;-28
2022/08/02 05:59:54;;;;;;;9.20;3.67;;;17.20;99.90;;;;;;5035158;28;20475;-28
2022/08/02 06:02:29;;;;;;;11.45;3.30;;;17.50;18.80;;;;;;5048837;28;20052;-28
2022/08/02 06:05:03;;;;;;;6.30;3.08;;;17.90;1.00;;;;;;5052035;28;20047;-27
2022/08/02 06:07:31;;;;;;;9.02;3.00;;;18.20;99.90;;;;;;5055477;28;20123;-28
2022/08/02 06:09:58;;;;;;;11.85;2.72;;;18.20;99.90;;;;;;5052390;28;20055;-28
2022/08/02 06:12:28;;;;;;;8.85;3.00;;;18.40;99.90;;;;;;5054391;28;20065;-28
2022/08/02 06:14:55;;;;;;;8.65;3.08;;;18.40;99.90;;;;;;5051939;28;20041;-28
2022/08/02 06:17:21;;;;;;;6.82;2.92;;;18.50;99.90;;;;;;5054656;28;20045;-27
2022/08/02 06:19:47;;;;;;;8.60;2.55;;;18.60;99.90;;;;;;5052280;28;20513;-27
2022/08/02 06:22:15;;;;;;;10.25;2.80;;;18.60;99.90;;;;;;5055114;28;20055;-28
2022/08/02 06:24:45;;;;;;;11.18;2.97;;;18.80;99.90;;;;;;5053206;28;20047;-28
2022/08/02 06:27:14;;;;;;;5.18;2.03;;;18.90;64.10;;;;;;5052143;28;20454;-27
2022/08/02 06:29:42;;;;;;;6.88;2.55;;;19.10;99.90;;;;;;5049652;28;20450;-28
2022/08/02 06:32:08;;;;;;;8.50;2.17;;;19.10;99.90;;;;;;5054431;28;20079;-27
2022/08/02 06:34:40;;;;;;;7.32;2.78;;;19.00;99.90;;;;;;5054271;28;20436;-28
2022/08/02 06:37:17;;;;;;;7.68;2.72;;;18.90;77.90;;;;;;5053998;28;20045;-27
2022/08/02 06:39:54;;;;;;;7.25;2.40;;;18.90;99.90;;;;;;5053743;28;20041;-27
2022/08/02 06:42:26;;;;;;;9.57;2.22;;;18.80;42.00;;;;;;5055541;28;20461;-27
2022/08/02 06:44:52;;;;;;;8.50;2.63;;;18.60;99.90;;;;;;5054238;28;20052;-27
2022/08/02 06:47:18;;;;;;;9.63;2.30;;;18.50;99.90;;;;;;5052782;28;20051;-27
2022/08/02 06:49:44;;;;;;;8.20;2.05;;;18.50;99.90;;;;;;5053147;28;20076;-27
2022/08/02 06:52:10;;;;;;;9.82;2.00;;;18.50;99.90;;;;;;5053306;28;20079;-27
2022/08/02 06:54:37;;;;;;;9.80;2.10;;;18.50;99.90;;;;;;5054037;28;20454;-28
2022/08/02 06:57:03;;;;;;;7.10;2.40;;;18.60;99.90;;;;;;5054016;28;20045;-27
2022/08/02 06:59:29;;;;;;;5.03;2.08;;;18.60;99.90;;;;;;5052568;28;20056;-27
2022/08/02 07:01:56;;;;;;;8.98;2.47;;;18.70;99.90;;;;;;5031633;28;20098;-27
2022/08/02 07:04:22;;;;;;;8.05;2.20;;;18.80;99.90;;;;;;5053831;28;20076;-27
2022/08/02 07:06:48;;;;;;;8.20;2.13;;;18.90;99.90;;;;;;5042770;28;20079;-27
2022/08/02 07:09:14;;;;;;;7.68;2.05;;;18.90;99.90;;;;;;5045197;28;20483;-27
2022/08/02 07:11:39;;;;;;;6.10;1.67;;;18.90;99.90;;;;;;5049719;28;20055;-28
2022/08/02 07:14:05;;;;;;;8.60;1.92;;;18.90;99.90;;;;;;5054740;28;20084;-27
2022/08/02 07:16:31;;;;;;;7.03;1.80;;;18.90;99.90;;;;;;5052736;28;20048;-27
2022/08/02 07:18:57;;;;;;;5.45;1.30;;;18.80;99.90;;;;;;5053869;28;20048;-27
2022/08/02 07:21:23;;;;;;;6.45;1.83;;;18.80;95.70;;;;;;5053592;28;20076;-27
2022/08/02 07:23:48;;;;;;;5.30;1.50;;;18.80;99.90;;;;;;5053315;28;20082;-27
2022/08/02 07:26:14;;;;;;;4.63;1.33;;;18.80;71.50;;;;;;5051955;28;20091;-27
2022/08/02 07:28:40;;;;;;;5.20;1.20;;;18.90;24.80;;;;;;5053743;28;20095;-27
2022/08/02 07:31:05;;;;;;;6.97;1.60;;;19.00;99.90;;;;;;5053101;28;20053;-27
2022/08/02 07:33:31;;;;;;;5.70;1.60;;;19.10;99.90;;;;;;5052745;28;20045;-27
2022/08/02 07:35:57;;;;;;;7.05;1.30;;;19.10;1.00;;;;;;5033599;28;20042;-27
2022/08/02 07:38:23;;;;;;;3.15;0.90;;;19.10;99.90;;;;;;5033655;28;20052;-27
2022/08/02 07:40:49;;;;;;;3.35;0.68;;;19.20;99.90;;;;;;5039349;28;20072;-28
2022/08/02 07:43:18;;;;;;;5.97;1.75;;;19.30;99.90;;;;;;5052132;28;20518;-27
2022/08/02 07:45:43;;;;;;;3.53;1.13;;;19.40;99.90;;;;;;5019578;28;20045;-27
2022/08/02 07:48:09;;;;;;;5.70;1.25;;;19.60;99.90;;;;;;5053302;28;20102;-27
2022/08/02 07:50:35;;;;;;;2.45;0.80;;;19.70;99.90;;;;;;5054256;28;20052;-27
2022/08/02 07:53:00;;;;;;;3.92;1.55;;;19.90;99.90;;;;;;5068883;28;20044;-28
2022/08/02 07:55:26;;;;;;;5.88;0.80;;;20.00;99.90;;;;;;5052489;28;20126;-28
2022/08/02 07:57:52;;;;;;;4.68;1.17;;;20.30;99.90;;;;;;5053353;28;20493;-29
2022/08/02 08:00:18;;;;;;;4.38;0.98;;;20.50;1.00;;;;;;5052176;28;20063;-27
2022/08/02 08:02:45;;;;;;;5.15;0.85;;;20.60;1.00;;;;;;5052012;28;20057;-28
2022/08/02 08:05:11;;;;;;;5.82;0.90;;;20.80;1.00;;;;;;5053131;28;20036;-27
2022/08/02 08:07:37;;;;;;;6.25;0.80;;;20.90;1.00;;;;;;5053090;28;20049;-28
2022/08/02 08:10:04;;;;;;;1.60;0.50;;;21.10;99.90;;;;;;5053999;28;20045;-27
2022/08/02 08:12:30;;;;;;;2.15;0.60;;;21.10;31.90;;;;;;5053812;28;20053;-27
2022/08/02 08:14:55;;;;;;;2.10;0.90;;;21.10;99.90;;;;;;5053188;28;20395;-29
2022/08/02 08:17:21;;;;;;;3.40;0.95;;;21.10;1.00;;;;;;5052704;28;20040;-27
2022/08/02 08:19:47;;;;;;;1.95;0.50;;;21.20;99.90;;;;;;5053015;28;20049;-27
2022/08/02 08:22:13;;;;;;;3.70;0.98;;;21.40;1.00;;;;;;5052427;28;20045;-27
2022/08/02 08:24:39;;;;;;;2.88;0.70;;;21.60;99.90;;;;;;5053064;28;20041;-27
2022/08/02 08:27:05;;;;;;;4.07;0.65;;;21.60;99.90;;;;;;5052965;28;20041;-28
2022/08/02 08:29:31;;;;;;;3.58;0.70;;;21.70;99.90;;;;;;5051991;28;20045;-27
2022/08/02 08:31:56;;;;;;;3.03;0.60;;;21.80;61.60;;;;;;5052046;28;20502;-27
2022/08/02 08:34:23;;;;;;;3.05;1.20;;;21.90;99.90;;;;;;5042427;28;20103;-27
2022/08/02 08:36:49;;;;;;;3.55;0.90;;;21.90;39.60;;;;;;5035844;28;20045;-28
2022/08/02 08:39:15;;;;;;;4.68;0.60;;;22.10;1.00;;;;;;5051710;28;20056;-27
2022/08/02 08:41:45;;;;;;;5.13;0.88;;;21.90;99.90;;;;;;5050411;28;20395;-27
2022/08/02 08:44:11;;;;;;;9.55;1.10;;;21.70;99.90;;;;;;5054196;28;20045;-26
2022/08/02 08:46:39;;;;;;;3.50;0.80;;;21.40;99.90;;;;;;5049744;28;20056;-25
2022/08/02 08:49:27;;;;;;;2.80;0.60;;;21.00;1.00;;;;;;5038586;28;20049;-25
2022/08/02 08:51:55;;;;;;;4.15;0.80;;;20.70;1.00;;;;;;5056372;28;20045;-24
2022/08/02 08:54:24;;;;;;;3.47;1.40;;;20.70;38.20;;;;;;5056283;28;20045;-24
2022/08/02 08:56:51;;;;;;;1.27;0.68;;;20.70;99.90;;;;;;5054239;28;20048;-24
2022/08/02 08:59:17;;;;;;;6.70;0.80;;;20.90;99.90;;;;;;5056220;28;20129;-24
2022/08/02 09:01:47;;;;;;;2.25;0.75;;;21.00;1.00;;;;;;5056152;28;20041;-23
2022/08/02 09:04:13;;;;;;;8.00;0.90;;;20.90;99.90;;;;;;5056122;28;20098;-23
2022/08/02 09:06:39;;;;;;;1.15;0.65;;;21.20;99.90;;;;;;5055310;28;20049;-23
2022/08/02 09:09:04;;;;;;;6.45;0.65;;;21.70;1.00;;;;;;5055967;28;20041;-24
2022/08/02 09:11:31;;;;;;;2.00;0.80;;;21.90;1.00;;;;;;5054746;28;20056;-24
2022/08/02 09:14:01;;;;;;;4.00;0.93;;;22.00;1.00;;;;;;5055941;28;20057;-24
2022/08/02 09:16:35;;;;;;;1.83;0.70;;;22.10;99.90;;;;;;5054453;28;20056;-26
2022/08/02 09:19:16;;;;;;;5.13;1.17;;;22.40;99.90;;;;;;5055458;28;20091;-26
2022/08/02 09:21:42;;;;;;;8.18;1.13;;;22.50;95.70;;;;;;5038294;28;20135;-24
2022/08/02 09:24:20;;;;;;;3.50;1.00;;;22.70;1.00;;;;;;5054770;28;20123;-24
2022/08/02 09:26:47;;;;;;;3.38;0.90;;;22.90;1.00;;;;;;5055731;28;20395;-24
2022/08/02 09:29:16;;;;;;;2.90;0.80;;;23.00;99.90;;;;;;5054584;28;20084;-25
2022/08/02 09:31:42;;;;;;;1.92;0.65;;;23.00;99.90;;;;;;5054435;28;20045;-25
2022/08/02 09:34:08;;;;;;;5.45;2.05;;;23.00;99.90;;;;;;5072144;28;20045;-24
2022/08/02 09:36:40;;;;;;;6.28;1.00;;;23.00;99.90;;;;;;5055506;28;20045;-23
2022/08/02 09:39:09;;;;;;;3.33;0.95;;;23.00;99.90;;;;;;5053111;28;20045;-23
2022/08/02 09:41:40;;;;;;;2.28;0.82;;;23.10;99.90;;;;;;5055156;28;20577;-23
2022/08/02 09:44:07;;;;;;;4.65;1.10;;;22.70;99.90;;;;;;5054828;28;20431;-23
2022/08/02 09:46:40;;;;;;;7.82;1.02;;;21.80;80.80;;;;;;5050513;28;20120;-24
2022/08/02 09:49:11;;;;;;;2.28;1.08;;;21.40;8.80;;;;;;5052665;28;20103;-24
2022/08/02 09:51:56;;;;;;;4.70;1.42;;;21.30;99.90;;;;;;5055102;28;20049;-24
2022/08/02 09:54:24;;;;;;;5.22;1.08;;;21.40;1.00;;;;;;5052078;28;20049;-24
2022/08/02 09:57:00;;;;;;;2.75;0.98;;;21.70;1.00;;;;;;5054496;28;20045;-25
2022/08/02 09:59:28;;;;;;;4.15;1.45;;;22.10;99.90;;;;;;5055710;28;20127;-26
2022/08/02 10:01:56;;;;;;;4.00;0.85;;;22.80;99.90;;;;;;5055066;28;20133;-26
2022/08/02 10:04:24;;;;;;;2.95;1.30;;;23.50;99.90;;;;;;5053950;28;20399;-27
2022/08/02 10:06:51;;;;;;;2.97;1.38;;;24.00;1.00;;;;;;5054861;28;20475;-26
2022/08/02 10:09:18;;;;;;;4.60;1.40;;;24.30;99.90;;;;;;5055437;28;20127;-28
2022/08/02 10:11:44;;;;;;;5.28;1.90;;;24.20;99.90;;;;;;5053573;28;20057;-26
2022/08/02 10:14:10;;;;;;;2.92;1.50;;;24.10;99.90;;;;;;5051045;28;20045;-27
2022/08/02 10:16:39;;;;;;;3.80;1.38;;;24.00;99.90;;;;;;5053534;28;20057;-27
2022/08/02 10:19:05;;;;;;;4.97;1.77;;;24.20;99.90;;;;;;5053633;28;20494;-27
2022/08/02 10:22:09;;;;;;;3.88;1.48;;;24.30;99.90;;;;;;5052967;28;20040;-27
2022/08/02 10:24:39;;;;;;;3.25;1.67;;;24.60;99.90;;;;;;5012944;28;20046;-27
2022/08/02 10:27:12;;;;;;;5.55;2.42;;;24.60;99.90;;;;;;5012485;28;20089;-27
2022/08/02 10:29:39;;;;;;;3.90;1.77;;;24.60;99.90;;;;;;5034127;28;20090;-27
2022/08/02 10:32:41;;;;;;;3.63;2.10;;;24.70;99.90;;;;;;5054447;28;20048;-28
2022/08/02 10:35:19;;;;;;;5.10;1.90;;;24.60;99.90;;;;;;5046692;28;20068;-27
2022/08/02 10:37:48;;;;;;;4.05;3.05;;;24.90;1.00;;;;;;5054407;28;20045;-27
2022/08/02 10:40:23;;;;;;;3.47;1.88;;;25.40;99.90;;;;;;5052971;28;20395;-27
2022/08/02 10:42:53;;;;;;;6.47;2.30;;;25.70;99.90;;;;;;5034231;28;20475;-27
2022/08/02 10:45:21;;;;;;;6.72;2.33;;;26.10;99.90;;;;;;5034856;28;20048;-28
2022/08/02 10:47:58;;;;;;;5.07;2.08;;;26.30;99.90;;;;;;5048011;28;20094;-28
2022/08/02 10:50:45;;;;;;;3.50;2.08;;;26.40;83.50;;;;;;5046494;28;20045;-27
2022/08/02 10:53:32;;;;;;;7.22;2.40;;;26.50;1.00;;;;;;5050184;28;20075;-27
2022/08/02 10:56:05;;;;;;;5.90;2.25;;;26.30;99.30;;;;;;5051925;28;20112;-27
2022/08/02 10:58:32;;;;;;;5.30;2.78;;;25.80;24.40;;;;;;5053310;28;20061;-27
2022/08/02 11:01:04;;;;;;;4.88;2.35;;;25.50;99.90;;;;;;5053955;28;20049;-27
2022/08/02 11:03:31;;;;;;;4.95;1.92;;;25.30;99.90;;;;;;5053994;28;20101;-27
2022/08/02 11:06:05;;;;;;;8.02;2.13;;;25.20;99.90;;;;;;5052378;28;20056;-27
2022/08/02 11:08:31;;;;;;;5.70;2.22;;;25.10;1.00;;;;;;5052502;28;20048;-28
2022/08/02 11:11:17;;;;;;;3.58;1.83;;;25.00;99.90;;;;;;5054160;28;20060;-28
2022/08/02 11:14:07;;;;;;;3.63;1.67;;;24.90;61.50;;;;;;5053833;28;20095;-28
2022/08/02 11:16:55;;;;;;;3.92;2.40;;;25.00;99.90;;;;;;5054318;28;20049;-28
2022/08/02 11:19:25;;;;;;;4.43;2.38;;;25.30;99.90;;;;;;5068197;28;20056;-27
2022/08/02 11:22:10;;;;;;;4.72;2.53;;;25.30;99.90;;;;;;5053962;28;20045;-28
2022/08/02 11:24:37;;;;;;;3.95;2.38;;;25.40;99.90;;;;;;5053650;28;20049;-27
2022/08/02 11:27:05;;;;;;;4.57;2.28;;;25.30;99.90;;;;;;5053547;28;20113;-28
2022/08/02 11:29:42;;;;;;;3.83;1.98;;;25.50;99.90;;;;;;5051833;28;20076;-28
2022/08/02 11:32:17;;;;;;;4.65;2.45;;;25.70;99.90;;;;;;5052488;28;20045;-28
2022/08/02 11:34:46;;;;;;;11.55;2.65;;;25.40;78.90;;;;;;5052491;28;20087;-29
2022/08/02 11:37:12;;;;;;;5.47;2.10;;;25.50;99.90;;;;;;5052342;28;20041;-28
2022/08/02 11:39:37;;;;;;;4.30;2.25;;;25.60;99.90;;;;;;5050954;28;20074;-28
2022/08/02 11:42:03;;;;;;;4.40;2.58;;;25.80;99.90;;;;;;5054303;28;20052;-29
2022/08/02 11:44:39;;;;;;;5.43;2.88;;;25.70;99.90;;;;;;5053457;28;20055;-27
2022/08/02 11:47:07;;;;;;;4.07;2.97;;;25.60;99.90;;;;;;5052324;28;20037;-28
2022/08/02 11:49:32;;;;;;;5.43;3.20;;;25.60;99.90;;;;;;5052130;28;20388;-27
2022/08/02 11:52:03;;;;;;;5.60;3.05;;;25.30;1.00;;;;;;5053391;28;20045;-29
2022/08/02 11:54:35;;;;;;;5.65;4.03;;;25.50;1.00;;;;;;5050773;28;20033;-28
2022/08/02 11:57:16;;;;;;;5.72;4.30;;;25.30;99.90;;;;;;5053613;28;20044;-29
2022/08/02 11:59:44;;;;;;;5.28;3.88;;;25.30;47.40;;;;;;5052842;28;20115;-28
2022/08/02 12:02:11;;;;;;;4.72;3.05;;;25.30;1.00;;;;;;5052336;28;20467;-28
2022/08/02 12:04:38;;;;;;;4.20;2.50;;;25.30;16.90;;;;;;5053269;28;20048;-30
2022/08/02 12:07:05;;;;;;;2.97;1.55;;;25.20;1.00;;;;;;5053438;28;20099;-28
2022/08/02 12:09:32;;;;;;;3.17;1.60;;;25.00;1.00;;;;;;5052237;28;20049;-28
2022/08/02 12:12:01;;;;;;;3.80;2.25;;;24.90;1.00;;;;;;5051274;28;20053;-28
2022/08/02 12:14:30;;;;;;;3.38;1.90;;;24.70;1.00;;;;;;5052536;28;20410;-28
2022/08/02 12:19:42;;;;;;;3.47;1.80;;;24.70;79.30;;;;;;5056002;28;20139;-28
2022/08/02 12:22:16;;;;;;;4.93;2.28;;;24.50;33.60;;;;;;5055957;28;20124;-28
2022/08/02 12:24:54;;;;;;;4.13;2.67;;;24.50;99.90;;;;;;5055529;28;20525;-28
2022/08/02 12:27:31;;;;;;;6.18;2.40;;;24.60;99.90;;;;;;5056791;28;20565;-28
2022/08/02 12:30:09;;;;;;;5.57;2.88;;;24.40;99.90;;;;;;5056695;28;20053;-28
2022/08/02 12:32:35;;;;;;;4.00;2.80;;;24.30;99.90;;;;;;5055804;28;20057;-28
2022/08/02 12:35:21;;;;;;;7.53;3.33;;;24.00;99.90;;;;;;5055177;28;20040;-28
2022/08/02 12:37:48;;;;;;;8.48;4.13;;;23.90;1.00;;;;;;5057220;28;20053;-28
2022/08/02 12:40:28;;;;;;;9.02;4.20;;;23.90;1.00;;;;;;5056491;28;20045;-28
2022/08/02 12:42:59;;;;;;;4.80;3.33;;;23.90;1.00;;;;;;5056516;28;20049;-28
2022/08/02 12:45:27;;;;;;;5.78;4.15;;;23.90;1.00;;;;;;5055108;28;20052;-28
2022/08/02 12:47:55;;;;;;;5.40;3.72;;;24.00;84.30;;;;;;5054180;28;20067;-28
2022/08/02 12:50:33;;;;;;;6.60;4.10;;;24.00;1.00;;;;;;5055500;28;20044;-28
2022/08/02 12:53:13;;;;;;;6.85;3.90;;;24.10;1.00;;;;;;5050358;28;20045;-28
2022/08/02 12:55:51;;;;;;;6.45;3.90;;;24.10;1.00;;;;;;5053759;28;20037;-29
2022/08/02 12:58:17;;;;;;;7.78;4.85;;;24.10;1.00;;;;;;5056093;28;20407;-28